sensor_id;sensor_type;location;lat;lon;timestamp;P1;durP1;ratioP1;P2;durP2;ratioP2
55364;SDS011;41245;45.384;20.390;2024-01-15T00:02:09;91.60;;;41.85;;
55364;SDS011;41245;45.384;20.390;2024-01-15T00:04:38;97.85;;;44.20;;
55364;SDS011;41245;45.384;20.390;2024-01-15T00:07:05;98.85;;;46.17;;
55364;SDS011;41245;45.384;20.390;2024-01-15T00:09:31;107.35;;;43.83;;
55364;SDS011;41245;45.384;20.390;2024-01-15T00:11:59;94.85;;;43.72;;
55364;SDS011;41245;45.384;20.390;2024-01-15T00:14:25;92.28;;;43.72;;
55364;SDS011;41245;45.384;20.390;2024-01-15T00:16:51;105.07;;;44.78;;
55364;SDS011;41245;45.384;20.390;2024-01-15T00:19:19;98.07;;;44.97;;
55364;SDS011;41245;45.384;20.390;2024-01-15T00:21:46;93.22;;;44.22;;
55364;SDS011;41245;45.384;20.390;2024-01-15T00:24:12;98.65;;;44.13;;
55364;SDS011;41245;45.384;20.390;2024-01-15T00:26:38;95.68;;;43.45;;
55364;SDS011;41245;45.384;20.390;2024-01-15T00:29:03;105.43;;;45.58;;
55364;SDS011;41245;45.384;20.390;2024-01-15T00:31:29;96.28;;;44.78;;
55364;SDS011;41245;45.384;20.390;2024-01-15T00:33:55;102.88;;;46.55;;
55364;SDS011;41245;45.384;20.390;2024-01-15T00:36:22;100.85;;;46.22;;
55364;SDS011;41245;45.384;20.390;2024-01-15T00:38:48;102.28;;;45.10;;
55364;SDS011;41245;45.384;20.390;2024-01-15T00:41:14;111.97;;;50.28;;
55364;SDS011;41245;45.384;20.390;2024-01-15T00:43:40;110.72;;;46.67;;
55364;SDS011;41245;45.384;20.390;2024-01-15T00:46:05;105.07;;;47.28;;
55364;SDS011;41245;45.384;20.390;2024-01-15T00:48:31;95.55;;;47.08;;
55364;SDS011;41245;45.384;20.390;2024-01-15T00:50:57;103.63;;;45.15;;
55364;SDS011;41245;45.384;20.390;2024-01-15T00:53:25;96.15;;;45.15;;
55364;SDS011;41245;45.384;20.390;2024-01-15T00:55:51;98.93;;;46.58;;
55364;SDS011;41245;45.384;20.390;2024-01-15T00:58:16;96.22;;;44.75;;
55364;SDS011;41245;45.384;20.390;2024-01-15T01:00:42;102.00;;;45.75;;
55364;SDS011;41245;45.384;20.390;2024-01-15T01:03:08;107.28;;;47.78;;
55364;SDS011;41245;45.384;20.390;2024-01-15T01:05:34;103.60;;;46.15;;
55364;SDS011;41245;45.384;20.390;2024-01-15T01:08:00;106.82;;;43.92;;
55364;SDS011;41245;45.384;20.390;2024-01-15T01:10:26;109.78;;;48.70;;
55364;SDS011;41245;45.384;20.390;2024-01-15T01:12:52;107.32;;;48.28;;
55364;SDS011;41245;45.384;20.390;2024-01-15T01:15:18;103.72;;;47.22;;
55364;SDS011;41245;45.384;20.390;2024-01-15T01:17:44;101.75;;;47.30;;
55364;SDS011;41245;45.384;20.390;2024-01-15T01:20:11;102.97;;;47.88;;
55364;SDS011;41245;45.384;20.390;2024-01-15T01:22:37;95.25;;;45.92;;
55364;SDS011;41245;45.384;20.390;2024-01-15T01:25:02;102.65;;;46.72;;
55364;SDS011;41245;45.384;20.390;2024-01-15T01:27:28;105.57;;;46.47;;
55364;SDS011;41245;45.384;20.390;2024-01-15T01:29:54;106.20;;;46.58;;
55364;SDS011;41245;45.384;20.390;2024-01-15T01:32:20;101.63;;;48.65;;
55364;SDS011;41245;45.384;20.390;2024-01-15T01:34:47;104.28;;;47.97;;
55364;SDS011;41245;45.384;20.390;2024-01-15T01:37:12;98.43;;;45.80;;
55364;SDS011;41245;45.384;20.390;2024-01-15T01:39:39;100.15;;;45.95;;
55364;SDS011;41245;45.384;20.390;2024-01-15T01:42:06;101.85;;;46.70;;
55364;SDS011;41245;45.384;20.390;2024-01-15T01:44:31;103.65;;;46.05;;
55364;SDS011;41245;45.384;20.390;2024-01-15T01:46:58;95.93;;;45.70;;
55364;SDS011;41245;45.384;20.390;2024-01-15T01:49:24;106.10;;;46.58;;
55364;SDS011;41245;45.384;20.390;2024-01-15T01:51:51;96.13;;;43.75;;
55364;SDS011;41245;45.384;20.390;2024-01-15T01:54:18;98.60;;;44.92;;
55364;SDS011;41245;45.384;20.390;2024-01-15T01:56:44;87.93;;;42.97;;
55364;SDS011;41245;45.384;20.390;2024-01-15T01:59:12;100.65;;;44.80;;
55364;SDS011;41245;45.384;20.390;2024-01-15T02:01:38;91.32;;;43.70;;
55364;SDS011;41245;45.384;20.390;2024-01-15T02:04:05;99.78;;;45.85;;
55364;SDS011;41245;45.384;20.390;2024-01-15T02:06:31;91.25;;;44.22;;
55364;SDS011;41245;45.384;20.390;2024-01-15T02:08:56;95.18;;;44.25;;
55364;SDS011;41245;45.384;20.390;2024-01-15T02:11:22;108.22;;;45.75;;
55364;SDS011;41245;45.384;20.390;2024-01-15T02:13:48;101.35;;;45.05;;
55364;SDS011;41245;45.384;20.390;2024-01-15T02:16:14;98.72;;;45.55;;
55364;SDS011;41245;45.384;20.390;2024-01-15T02:18:41;100.88;;;47.00;;
55364;SDS011;41245;45.384;20.390;2024-01-15T02:21:08;96.57;;;45.65;;
55364;SDS011;41245;45.384;20.390;2024-01-15T02:23:34;99.55;;;41.65;;
55364;SDS011;41245;45.384;20.390;2024-01-15T02:26:00;100.10;;;43.30;;
55364;SDS011;41245;45.384;20.390;2024-01-15T02:28:26;99.75;;;44.95;;
55364;SDS011;41245;45.384;20.390;2024-01-15T02:30:52;103.03;;;44.35;;
55364;SDS011;41245;45.384;20.390;2024-01-15T02:33:17;111.70;;;47.90;;
55364;SDS011;41245;45.384;20.390;2024-01-15T02:35:43;116.07;;;48.63;;
55364;SDS011;41245;45.384;20.390;2024-01-15T02:38:11;131.07;;;52.53;;
55364;SDS011;41245;45.384;20.390;2024-01-15T02:40:38;122.40;;;54.25;;
55364;SDS011;41245;45.384;20.390;2024-01-15T02:43:04;116.63;;;51.70;;
55364;SDS011;41245;45.384;20.390;2024-01-15T02:45:30;109.38;;;49.30;;
55364;SDS011;41245;45.384;20.390;2024-01-15T02:47:55;98.88;;;45.97;;
55364;SDS011;41245;45.384;20.390;2024-01-15T02:50:21;113.43;;;51.35;;
55364;SDS011;41245;45.384;20.390;2024-01-15T02:52:47;122.15;;;50.25;;
55364;SDS011;41245;45.384;20.390;2024-01-15T02:55:13;106.00;;;47.38;;
55364;SDS011;41245;45.384;20.390;2024-01-15T02:57:38;125.28;;;55.67;;
55364;SDS011;41245;45.384;20.390;2024-01-15T03:00:04;107.75;;;49.38;;
55364;SDS011;41245;45.384;20.390;2024-01-15T03:02:30;111.32;;;49.42;;
55364;SDS011;41245;45.384;20.390;2024-01-15T03:04:59;136.00;;;54.92;;
55364;SDS011;41245;45.384;20.390;2024-01-15T03:07:25;113.72;;;52.00;;
55364;SDS011;41245;45.384;20.390;2024-01-15T03:09:51;120.05;;;52.10;;
55364;SDS011;41245;45.384;20.390;2024-01-15T03:12:16;104.60;;;45.97;;
55364;SDS011;41245;45.384;20.390;2024-01-15T03:14:43;104.40;;;46.83;;
55364;SDS011;41245;45.384;20.390;2024-01-15T03:17:08;101.75;;;44.17;;
55364;SDS011;41245;45.384;20.390;2024-01-15T03:19:35;96.82;;;43.65;;
55364;SDS011;41245;45.384;20.390;2024-01-15T03:22:01;78.97;;;39.88;;
55364;SDS011;41245;45.384;20.390;2024-01-15T03:24:28;84.85;;;39.05;;
55364;SDS011;41245;45.384;20.390;2024-01-15T03:26:54;83.68;;;40.53;;
55364;SDS011;41245;45.384;20.390;2024-01-15T03:29:20;83.88;;;40.55;;
55364;SDS011;41245;45.384;20.390;2024-01-15T03:31:47;83.07;;;37.40;;
55364;SDS011;41245;45.384;20.390;2024-01-15T03:34:12;82.65;;;37.83;;
55364;SDS011;41245;45.384;20.390;2024-01-15T03:36:38;84.93;;;41.17;;
55364;SDS011;41245;45.384;20.390;2024-01-15T03:39:04;82.68;;;37.90;;
55364;SDS011;41245;45.384;20.390;2024-01-15T03:41:29;83.65;;;40.08;;
55364;SDS011;41245;45.384;20.390;2024-01-15T03:43:55;73.35;;;36.72;;
55364;SDS011;41245;45.384;20.390;2024-01-15T03:46:20;80.97;;;37.95;;
55364;SDS011;41245;45.384;20.390;2024-01-15T03:48:46;81.50;;;39.35;;
55364;SDS011;41245;45.384;20.390;2024-01-15T03:51:12;80.20;;;35.40;;
55364;SDS011;41245;45.384;20.390;2024-01-15T03:53:40;79.70;;;38.42;;
55364;SDS011;41245;45.384;20.390;2024-01-15T03:56:06;75.22;;;34.95;;
55364;SDS011;41245;45.384;20.390;2024-01-15T03:58:31;75.68;;;35.30;;
55364;SDS011;41245;45.384;20.390;2024-01-15T04:00:57;78.20;;;35.67;;
55364;SDS011;41245;45.384;20.390;2024-01-15T04:03:23;73.20;;;35.97;;
55364;SDS011;41245;45.384;20.390;2024-01-15T04:05:48;71.68;;;34.92;;
55364;SDS011;41245;45.384;20.390;2024-01-15T04:08:14;63.28;;;32.95;;
55364;SDS011;41245;45.384;20.390;2024-01-15T04:10:40;65.78;;;32.15;;
55364;SDS011;41245;45.384;20.390;2024-01-15T04:13:05;63.97;;;31.23;;
55364;SDS011;41245;45.384;20.390;2024-01-15T04:15:31;65.80;;;30.80;;
55364;SDS011;41245;45.384;20.390;2024-01-15T04:17:57;69.90;;;30.80;;
55364;SDS011;41245;45.384;20.390;2024-01-15T04:20:22;61.22;;;31.30;;
55364;SDS011;41245;45.384;20.390;2024-01-15T04:22:48;56.97;;;28.35;;
55364;SDS011;41245;45.384;20.390;2024-01-15T04:25:14;63.47;;;31.00;;
55364;SDS011;41245;45.384;20.390;2024-01-15T04:27:39;66.57;;;30.67;;
55364;SDS011;41245;45.384;20.390;2024-01-15T04:30:05;63.40;;;28.23;;
55364;SDS011;41245;45.384;20.390;2024-01-15T04:32:31;62.17;;;28.10;;
55364;SDS011;41245;45.384;20.390;2024-01-15T04:34:57;59.85;;;28.45;;
55364;SDS011;41245;45.384;20.390;2024-01-15T04:37:23;55.63;;;29.13;;
55364;SDS011;41245;45.384;20.390;2024-01-15T04:39:48;52.10;;;26.45;;
55364;SDS011;41245;45.384;20.390;2024-01-15T04:42:17;55.97;;;26.98;;
55364;SDS011;41245;45.384;20.390;2024-01-15T04:44:43;60.15;;;28.13;;
55364;SDS011;41245;45.384;20.390;2024-01-15T04:47:09;57.53;;;26.15;;
55364;SDS011;41245;45.384;20.390;2024-01-15T04:49:34;58.92;;;26.20;;
55364;SDS011;41245;45.384;20.390;2024-01-15T04:52:00;53.10;;;25.25;;
55364;SDS011;41245;45.384;20.390;2024-01-15T04:54:26;62.67;;;26.33;;
55364;SDS011;41245;45.384;20.390;2024-01-15T04:56:51;51.40;;;24.77;;
55364;SDS011;41245;45.384;20.390;2024-01-15T04:59:17;61.70;;;26.55;;
55364;SDS011;41245;45.384;20.390;2024-01-15T05:01:43;53.13;;;25.80;;
55364;SDS011;41245;45.384;20.390;2024-01-15T05:04:08;53.78;;;23.50;;
55364;SDS011;41245;45.384;20.390;2024-01-15T05:06:34;50.13;;;22.73;;
55364;SDS011;41245;45.384;20.390;2024-01-15T05:09:00;50.10;;;23.48;;
55364;SDS011;41245;45.384;20.390;2024-01-15T05:11:25;51.97;;;22.95;;
55364;SDS011;41245;45.384;20.390;2024-01-15T05:13:51;56.72;;;26.45;;
55364;SDS011;41245;45.384;20.390;2024-01-15T05:16:17;54.65;;;23.30;;
55364;SDS011;41245;45.384;20.390;2024-01-15T05:18:43;50.92;;;23.67;;
55364;SDS011;41245;45.384;20.390;2024-01-15T05:21:08;44.08;;;22.20;;
55364;SDS011;41245;45.384;20.390;2024-01-15T05:23:34;44.50;;;22.58;;
55364;SDS011;41245;45.384;20.390;2024-01-15T05:26:00;43.90;;;20.88;;
55364;SDS011;41245;45.384;20.390;2024-01-15T05:28:25;42.50;;;20.83;;
55364;SDS011;41245;45.384;20.390;2024-01-15T05:30:51;47.28;;;22.33;;
55364;SDS011;41245;45.384;20.390;2024-01-15T05:33:17;44.67;;;24.35;;
55364;SDS011;41245;45.384;20.390;2024-01-15T05:35:43;47.25;;;22.00;;
55364;SDS011;41245;45.384;20.390;2024-01-15T05:38:09;47.85;;;23.02;;
55364;SDS011;41245;45.384;20.390;2024-01-15T05:40:34;43.97;;;21.13;;
55364;SDS011;41245;45.384;20.390;2024-01-15T05:43:00;48.72;;;21.30;;
55364;SDS011;41245;45.384;20.390;2024-01-15T05:45:26;48.00;;;22.83;;
55364;SDS011;41245;45.384;20.390;2024-01-15T05:47:52;47.30;;;22.92;;
55364;SDS011;41245;45.384;20.390;2024-01-15T05:50:18;49.70;;;23.55;;
55364;SDS011;41245;45.384;20.390;2024-01-15T05:52:43;46.38;;;21.75;;
55364;SDS011;41245;45.384;20.390;2024-01-15T05:55:09;49.53;;;22.55;;
55364;SDS011;41245;45.384;20.390;2024-01-15T05:57:35;41.08;;;21.73;;
55364;SDS011;41245;45.384;20.390;2024-01-15T06:00:02;43.20;;;20.80;;
55364;SDS011;41245;45.384;20.390;2024-01-15T06:02:29;46.95;;;22.00;;
55364;SDS011;41245;45.384;20.390;2024-01-15T06:04:55;52.58;;;24.70;;
55364;SDS011;41245;45.384;20.390;2024-01-15T06:07:20;46.85;;;21.48;;
55364;SDS011;41245;45.384;20.390;2024-01-15T06:09:47;52.17;;;24.17;;
55364;SDS011;41245;45.384;20.390;2024-01-15T06:12:13;51.42;;;21.48;;
55364;SDS011;41245;45.384;20.390;2024-01-15T06:14:39;49.88;;;21.17;;
55364;SDS011;41245;45.384;20.390;2024-01-15T06:17:06;53.95;;;21.80;;
55364;SDS011;41245;45.384;20.390;2024-01-15T06:19:32;47.15;;;22.58;;
55364;SDS011;41245;45.384;20.390;2024-01-15T06:21:57;40.00;;;20.30;;
55364;SDS011;41245;45.384;20.390;2024-01-15T06:24:23;45.70;;;20.60;;
55364;SDS011;41245;45.384;20.390;2024-01-15T06:26:49;51.95;;;22.73;;
55364;SDS011;41245;45.384;20.390;2024-01-15T06:29:15;52.92;;;22.83;;
55364;SDS011;41245;45.384;20.390;2024-01-15T06:31:40;45.63;;;20.90;;
55364;SDS011;41245;45.384;20.390;2024-01-15T06:34:06;46.50;;;21.52;;
55364;SDS011;41245;45.384;20.390;2024-01-15T06:36:32;48.60;;;20.38;;
55364;SDS011;41245;45.384;20.390;2024-01-15T06:38:58;45.10;;;22.48;;
55364;SDS011;41245;45.384;20.390;2024-01-15T06:41:23;41.38;;;22.33;;
55364;SDS011;41245;45.384;20.390;2024-01-15T06:43:50;47.70;;;22.35;;
55364;SDS011;41245;45.384;20.390;2024-01-15T06:46:22;44.50;;;20.65;;
55364;SDS011;41245;45.384;20.390;2024-01-15T06:48:48;47.80;;;23.40;;
55364;SDS011;41245;45.384;20.390;2024-01-15T06:51:15;43.60;;;22.17;;
55364;SDS011;41245;45.384;20.390;2024-01-15T06:53:41;45.10;;;22.70;;
55364;SDS011;41245;45.384;20.390;2024-01-15T06:56:07;46.65;;;23.00;;
55364;SDS011;41245;45.384;20.390;2024-01-15T06:58:33;54.10;;;22.98;;
55364;SDS011;41245;45.384;20.390;2024-01-15T07:00:59;43.97;;;22.02;;
55364;SDS011;41245;45.384;20.390;2024-01-15T07:03:25;49.70;;;23.67;;
55364;SDS011;41245;45.384;20.390;2024-01-15T07:05:50;46.30;;;23.45;;
55364;SDS011;41245;45.384;20.390;2024-01-15T07:08:16;47.08;;;23.52;;
55364;SDS011;41245;45.384;20.390;2024-01-15T07:10:42;44.28;;;21.83;;
55364;SDS011;41245;45.384;20.390;2024-01-15T07:13:08;46.28;;;22.38;;
55364;SDS011;41245;45.384;20.390;2024-01-15T07:15:34;49.10;;;22.30;;
55364;SDS011;41245;45.384;20.390;2024-01-15T07:18:00;46.35;;;22.15;;
55364;SDS011;41245;45.384;20.390;2024-01-15T07:20:25;46.85;;;22.67;;
55364;SDS011;41245;45.384;20.390;2024-01-15T07:22:51;45.92;;;21.55;;
55364;SDS011;41245;45.384;20.390;2024-01-15T07:25:17;45.90;;;22.80;;
55364;SDS011;41245;45.384;20.390;2024-01-15T07:27:42;44.78;;;22.10;;
55364;SDS011;41245;45.384;20.390;2024-01-15T07:30:10;41.78;;;21.00;;
55364;SDS011;41245;45.384;20.390;2024-01-15T07:32:37;43.30;;;22.13;;
55364;SDS011;41245;45.384;20.390;2024-01-15T07:35:03;54.05;;;23.63;;
55364;SDS011;41245;45.384;20.390;2024-01-15T07:37:29;50.72;;;22.92;;
55364;SDS011;41245;45.384;20.390;2024-01-15T07:39:55;48.47;;;21.88;;
55364;SDS011;41245;45.384;20.390;2024-01-15T07:42:20;45.35;;;23.38;;
55364;SDS011;41245;45.384;20.390;2024-01-15T07:44:46;51.42;;;24.67;;
55364;SDS011;41245;45.384;20.390;2024-01-15T07:47:12;50.70;;;25.65;;
55364;SDS011;41245;45.384;20.390;2024-01-15T07:49:37;49.22;;;24.33;;
55364;SDS011;41245;45.384;20.390;2024-01-15T07:52:03;47.95;;;24.25;;
55364;SDS011;41245;45.384;20.390;2024-01-15T07:54:30;47.65;;;22.55;;
55364;SDS011;41245;45.384;20.390;2024-01-15T07:56:57;46.00;;;22.80;;
55364;SDS011;41245;45.384;20.390;2024-01-15T07:59:25;45.05;;;21.17;;
55364;SDS011;41245;45.384;20.390;2024-01-15T08:01:52;55.53;;;24.90;;
55364;SDS011;41245;45.384;20.390;2024-01-15T08:04:18;49.20;;;24.67;;
55364;SDS011;41245;45.384;20.390;2024-01-15T08:06:44;51.70;;;26.85;;
55364;SDS011;41245;45.384;20.390;2024-01-15T08:09:10;39.83;;;21.00;;
55364;SDS011;41245;45.384;20.390;2024-01-15T08:11:36;41.22;;;21.85;;
55364;SDS011;41245;45.384;20.390;2024-01-15T08:14:05;45.65;;;22.85;;
55364;SDS011;41245;45.384;20.390;2024-01-15T08:16:31;48.75;;;22.83;;
55364;SDS011;41245;45.384;20.390;2024-01-15T08:18:57;43.20;;;21.27;;
55364;SDS011;41245;45.384;20.390;2024-01-15T08:21:22;53.28;;;23.85;;
55364;SDS011;41245;45.384;20.390;2024-01-15T08:23:48;40.00;;;20.63;;
55364;SDS011;41245;45.384;20.390;2024-01-15T08:26:14;46.45;;;22.38;;
55364;SDS011;41245;45.384;20.390;2024-01-15T08:28:39;47.85;;;21.48;;
55364;SDS011;41245;45.384;20.390;2024-01-15T08:31:05;47.95;;;22.70;;
55364;SDS011;41245;45.384;20.390;2024-01-15T08:33:31;47.25;;;23.95;;
55364;SDS011;41245;45.384;20.390;2024-01-15T08:35:56;46.05;;;24.63;;
55364;SDS011;41245;45.384;20.390;2024-01-15T08:38:22;60.42;;;25.98;;
55364;SDS011;41245;45.384;20.390;2024-01-15T08:40:49;57.58;;;27.30;;
55364;SDS011;41245;45.384;20.390;2024-01-15T08:43:16;48.88;;;23.73;;
55364;SDS011;41245;45.384;20.390;2024-01-15T08:45:41;64.88;;;26.70;;
55364;SDS011;41245;45.384;20.390;2024-01-15T08:48:07;69.93;;;32.47;;
55364;SDS011;41245;45.384;20.390;2024-01-15T08:50:33;67.43;;;32.58;;
55364;SDS011;41245;45.384;20.390;2024-01-15T08:52:58;67.15;;;26.92;;
55364;SDS011;41245;45.384;20.390;2024-01-15T08:55:24;51.85;;;23.95;;
55364;SDS011;41245;45.384;20.390;2024-01-15T08:57:50;44.97;;;23.05;;
55364;SDS011;41245;45.384;20.390;2024-01-15T09:00:16;46.90;;;23.63;;
55364;SDS011;41245;45.384;20.390;2024-01-15T09:02:42;41.17;;;21.85;;
55364;SDS011;41245;45.384;20.390;2024-01-15T09:05:09;44.15;;;22.13;;
55364;SDS011;41245;45.384;20.390;2024-01-15T09:07:34;42.45;;;21.42;;
55364;SDS011;41245;45.384;20.390;2024-01-15T09:10:00;41.50;;;22.05;;
55364;SDS011;41245;45.384;20.390;2024-01-15T09:12:26;48.85;;;22.55;;
55364;SDS011;41245;45.384;20.390;2024-01-15T09:14:52;41.50;;;21.88;;
55364;SDS011;41245;45.384;20.390;2024-01-15T09:17:19;50.15;;;23.83;;
55364;SDS011;41245;45.384;20.390;2024-01-15T09:19:46;41.00;;;22.33;;
55364;SDS011;41245;45.384;20.390;2024-01-15T09:22:12;46.60;;;23.60;;
55364;SDS011;41245;45.384;20.390;2024-01-15T09:24:42;46.80;;;22.70;;
55364;SDS011;41245;45.384;20.390;2024-01-15T09:27:08;48.90;;;25.13;;
55364;SDS011;41245;45.384;20.390;2024-01-15T09:29:34;46.08;;;22.27;;
55364;SDS011;41245;45.384;20.390;2024-01-15T09:32:04;44.78;;;22.08;;
55364;SDS011;41245;45.384;20.390;2024-01-15T09:34:31;55.80;;;26.80;;
55364;SDS011;41245;45.384;20.390;2024-01-15T09:36:57;53.00;;;24.52;;
55364;SDS011;41245;45.384;20.390;2024-01-15T09:39:25;53.28;;;25.58;;
55364;SDS011;41245;45.384;20.390;2024-01-15T09:41:51;58.80;;;26.95;;
55364;SDS011;41245;45.384;20.390;2024-01-15T09:44:17;58.83;;;26.48;;
55364;SDS011;41245;45.384;20.390;2024-01-15T09:46:45;53.78;;;26.33;;
55364;SDS011;41245;45.384;20.390;2024-01-15T09:49:14;51.72;;;25.77;;
55364;SDS011;41245;45.384;20.390;2024-01-15T09:51:41;61.30;;;32.20;;
55364;SDS011;41245;45.384;20.390;2024-01-15T09:54:08;68.22;;;30.38;;
55364;SDS011;41245;45.384;20.390;2024-01-15T09:56:35;58.55;;;29.70;;
55364;SDS011;41245;45.384;20.390;2024-01-15T09:59:01;56.55;;;29.67;;
55364;SDS011;41245;45.384;20.390;2024-01-15T10:01:29;61.22;;;30.35;;
55364;SDS011;41245;45.384;20.390;2024-01-15T10:03:55;58.67;;;28.88;;
55364;SDS011;41245;45.384;20.390;2024-01-15T10:06:21;58.80;;;30.08;;
55364;SDS011;41245;45.384;20.390;2024-01-15T10:08:48;61.20;;;30.70;;
55364;SDS011;41245;45.384;20.390;2024-01-15T10:11:15;59.20;;;28.77;;
55364;SDS011;41245;45.384;20.390;2024-01-15T10:13:43;68.82;;;32.70;;
55364;SDS011;41245;45.384;20.390;2024-01-15T10:16:09;71.72;;;33.60;;
55364;SDS011;41245;45.384;20.390;2024-01-15T10:18:36;71.15;;;32.72;;
55364;SDS011;41245;45.384;20.390;2024-01-15T10:21:04;67.63;;;31.73;;
55364;SDS011;41245;45.384;20.390;2024-01-15T10:23:31;61.65;;;31.00;;
55364;SDS011;41245;45.384;20.390;2024-01-15T10:25:57;64.03;;;30.15;;
55364;SDS011;41245;45.384;20.390;2024-01-15T10:28:25;57.72;;;30.33;;
55364;SDS011;41245;45.384;20.390;2024-01-15T10:30:52;62.03;;;30.30;;
55364;SDS011;41245;45.384;20.390;2024-01-15T10:33:23;70.28;;;34.08;;
55364;SDS011;41245;45.384;20.390;2024-01-15T10:35:55;64.63;;;33.38;;
55364;SDS011;41245;45.384;20.390;2024-01-15T10:40:50;65.53;;;30.20;;
55364;SDS011;41245;45.384;20.390;2024-01-15T10:43:17;65.93;;;32.92;;
55364;SDS011;41245;45.384;20.390;2024-01-15T10:45:49;62.53;;;30.67;;
55364;SDS011;41245;45.384;20.390;2024-01-15T10:48:17;70.00;;;31.33;;
55364;SDS011;41245;45.384;20.390;2024-01-15T10:50:44;64.88;;;31.50;;
55364;SDS011;41245;45.384;20.390;2024-01-15T10:53:14;60.47;;;30.27;;
55364;SDS011;41245;45.384;20.390;2024-01-15T10:55:42;57.17;;;27.13;;
55364;SDS011;41245;45.384;20.390;2024-01-15T10:58:08;59.00;;;28.73;;
55364;SDS011;41245;45.384;20.390;2024-01-15T11:00:37;57.40;;;27.80;;
55364;SDS011;41245;45.384;20.390;2024-01-15T11:03:04;53.05;;;25.80;;
55364;SDS011;41245;45.384;20.390;2024-01-15T11:05:37;54.20;;;27.02;;
55364;SDS011;41245;45.384;20.390;2024-01-15T11:08:06;64.50;;;28.35;;
55364;SDS011;41245;45.384;20.390;2024-01-15T11:13:20;56.33;;;28.67;;
55364;SDS011;41245;45.384;20.390;2024-01-15T11:15:54;50.08;;;28.38;;
55364;SDS011;41245;45.384;20.390;2024-01-15T11:18:26;65.25;;;32.08;;
55364;SDS011;41245;45.384;20.390;2024-01-15T11:23:56;73.47;;;33.77;;
55364;SDS011;41245;45.384;20.390;2024-01-15T11:34:21;79.00;;;35.05;;
55364;SDS011;41245;45.384;20.390;2024-01-15T11:37:20;79.22;;;34.33;;
55364;SDS011;41245;45.384;20.390;2024-01-15T11:39:46;66.60;;;33.40;;
55364;SDS011;41245;45.384;20.390;2024-01-15T11:42:12;65.97;;;31.60;;
55364;SDS011;41245;45.384;20.390;2024-01-15T11:44:39;67.25;;;30.38;;
55364;SDS011;41245;45.384;20.390;2024-01-15T11:47:06;58.88;;;31.42;;
55364;SDS011;41245;45.384;20.390;2024-01-15T11:52:02;60.67;;;30.47;;
55364;SDS011;41245;45.384;20.390;2024-01-15T11:54:30;67.22;;;30.38;;
55364;SDS011;41245;45.384;20.390;2024-01-15T11:57:03;62.65;;;31.13;;
55364;SDS011;41245;45.384;20.390;2024-01-15T11:59:34;53.15;;;28.27;;
55364;SDS011;41245;45.384;20.390;2024-01-15T12:02:01;58.35;;;29.60;;
55364;SDS011;41245;45.384;20.390;2024-01-15T12:04:28;63.10;;;29.85;;
55364;SDS011;41245;45.384;20.390;2024-01-15T12:06:53;65.25;;;32.15;;
55364;SDS011;41245;45.384;20.390;2024-01-15T12:09:19;60.70;;;31.08;;
55364;SDS011;41245;45.384;20.390;2024-01-15T12:11:57;54.80;;;29.90;;
55364;SDS011;41245;45.384;20.390;2024-01-15T12:14:31;56.20;;;29.42;;
55364;SDS011;41245;45.384;20.390;2024-01-15T12:16:57;63.97;;;30.88;;
55364;SDS011;41245;45.384;20.390;2024-01-15T12:19:23;67.45;;;33.90;;
55364;SDS011;41245;45.384;20.390;2024-01-15T12:21:50;60.03;;;32.65;;
55364;SDS011;41245;45.384;20.390;2024-01-15T12:24:16;78.45;;;32.80;;
55364;SDS011;41245;45.384;20.390;2024-01-15T12:26:44;82.95;;;39.67;;
55364;SDS011;41245;45.384;20.390;2024-01-15T12:29:10;72.03;;;34.67;;
55364;SDS011;41245;45.384;20.390;2024-01-15T12:31:37;69.20;;;34.53;;
55364;SDS011;41245;45.384;20.390;2024-01-15T12:34:02;74.70;;;38.80;;
55364;SDS011;41245;45.384;20.390;2024-01-15T12:36:31;70.15;;;37.85;;
55364;SDS011;41245;45.384;20.390;2024-01-15T12:39:00;75.80;;;36.08;;
55364;SDS011;41245;45.384;20.390;2024-01-15T12:41:27;77.97;;;36.72;;
55364;SDS011;41245;45.384;20.390;2024-01-15T12:43:53;66.07;;;34.05;;
55364;SDS011;41245;45.384;20.390;2024-01-15T12:46:19;69.63;;;34.28;;
55364;SDS011;41245;45.384;20.390;2024-01-15T12:48:45;68.90;;;34.72;;
55364;SDS011;41245;45.384;20.390;2024-01-15T12:51:12;59.20;;;31.48;;
55364;SDS011;41245;45.384;20.390;2024-01-15T12:53:38;60.60;;;31.35;;
55364;SDS011;41245;45.384;20.390;2024-01-15T12:56:04;55.55;;;32.22;;
55364;SDS011;41245;45.384;20.390;2024-01-15T12:58:30;54.33;;;29.95;;
55364;SDS011;41245;45.384;20.390;2024-01-15T13:00:56;58.28;;;29.80;;
55364;SDS011;41245;45.384;20.390;2024-01-15T13:03:22;51.40;;;28.02;;
55364;SDS011;41245;45.384;20.390;2024-01-15T13:05:48;53.17;;;28.55;;
55364;SDS011;41245;45.384;20.390;2024-01-15T13:08:16;52.70;;;27.15;;
55364;SDS011;41245;45.384;20.390;2024-01-15T13:10:42;58.95;;;30.58;;
55364;SDS011;41245;45.384;20.390;2024-01-15T13:13:09;55.15;;;25.67;;
55364;SDS011;41245;45.384;20.390;2024-01-15T13:15:35;53.22;;;22.60;;
55364;SDS011;41245;45.384;20.390;2024-01-15T13:18:01;52.47;;;26.08;;
55364;SDS011;41245;45.384;20.390;2024-01-15T13:20:27;51.92;;;25.77;;
55364;SDS011;41245;45.384;20.390;2024-01-15T13:22:53;50.55;;;23.42;;
55364;SDS011;41245;45.384;20.390;2024-01-15T13:25:20;48.35;;;23.83;;
55364;SDS011;41245;45.384;20.390;2024-01-15T13:27:46;44.70;;;22.90;;
55364;SDS011;41245;45.384;20.390;2024-01-15T13:30:12;29.27;;;15.10;;
55364;SDS011;41245;45.384;20.390;2024-01-15T13:32:38;48.72;;;23.35;;
55364;SDS011;41245;45.384;20.390;2024-01-15T13:35:04;53.60;;;24.75;;
55364;SDS011;41245;45.384;20.390;2024-01-15T13:40:02;56.35;;;26.58;;
55364;SDS011;41245;45.384;20.390;2024-01-15T13:42:28;41.85;;;22.27;;
55364;SDS011;41245;45.384;20.390;2024-01-15T13:44:54;49.90;;;24.63;;
55364;SDS011;41245;45.384;20.390;2024-01-15T13:47:20;62.17;;;32.03;;
55364;SDS011;41245;45.384;20.390;2024-01-15T13:49:47;53.60;;;26.30;;
55364;SDS011;41245;45.384;20.390;2024-01-15T13:52:13;58.67;;;26.58;;
55364;SDS011;41245;45.384;20.390;2024-01-15T13:54:39;53.83;;;26.15;;
55364;SDS011;41245;45.384;20.390;2024-01-15T13:57:06;55.35;;;27.00;;
55364;SDS011;41245;45.384;20.390;2024-01-15T13:59:32;39.58;;;19.30;;
55364;SDS011;41245;45.384;20.390;2024-01-15T14:01:58;51.15;;;26.10;;
55364;SDS011;41245;45.384;20.390;2024-01-15T14:04:24;32.35;;;18.02;;
55364;SDS011;41245;45.384;20.390;2024-01-15T14:06:50;51.35;;;25.50;;
55364;SDS011;41245;45.384;20.390;2024-01-15T14:09:16;46.08;;;24.05;;
55364;SDS011;41245;45.384;20.390;2024-01-15T14:11:42;52.28;;;25.55;;
55364;SDS011;41245;45.384;20.390;2024-01-15T14:14:08;52.05;;;23.05;;
55364;SDS011;41245;45.384;20.390;2024-01-15T14:16:34;55.55;;;26.52;;
55364;SDS011;41245;45.384;20.390;2024-01-15T14:19:01;54.53;;;26.33;;
55364;SDS011;41245;45.384;20.390;2024-01-15T14:21:27;52.95;;;25.83;;
55364;SDS011;41245;45.384;20.390;2024-01-15T14:23:53;51.22;;;26.42;;